OEJN/JED METAR and TAF weather

Enter ICAO airport designator
Station Type Date Time Source
OEJN METAR 2019/06/26 05:00 UTC NOAA

OEJN 260500Z 15008KT CAVOK 33/24 Q1007 NOSIG


Station Type Date Time Source
OEJN Decoded METAR 2019/06/26 05:00 UTC NOAA

Jeddah King Abdul Aziz International Airport , Saudi Arabia (OEJN) 21-42N 039-11E 17M
Jun 26, 2019 - 01:00 AM EDT / 2019.06.26 0500 UTC
Wind: from the SSE (150 degrees) at 9 MPH (8 KT):0
Visibility: greater than 7 mile(s):0
Temperature: 91 F (33 C)
Heat index: 101.5 F (38.6 C):1
Dew Point: 75 F (24 C)
Relative Humidity: 59%
Pressure (altimeter): 29.74 in. Hg (1007 hPa)
ob: OEJN 260500Z 15008KT CAVOK 33/24 Q1007 NOSIG
cycle: 5

Station Type Date Time Source
OEJN TAF 2019/06/26 06:06 UTC NOAA

TAF OEJN 260500Z 2606/2712 27012KT 8000 FEW040
BECMG 2618/2620 03008KT

Example: see airport list